sensor_id;sensor_type;location;lat;lon;timestamp;pressure;altitude;pressure_sealevel;temperature;humidity
20889;BME280;10604;51.976;7.594;2023-02-26T00:01:54;100957.81;;;0.92;82.45
20889;BME280;10604;51.976;7.594;2023-02-26T00:04:22;100962.22;;;1.01;83.24
20889;BME280;10604;51.976;7.594;2023-02-26T00:06:47;100962.97;;;0.89;82.61
20889;BME280;10604;51.976;7.594;2023-02-26T00:09:20;100976.84;;;0.91;83.50
20889;BME280;10604;51.976;7.594;2023-02-26T00:11:45;100980.13;;;0.78;83.18
20889;BME280;10604;51.976;7.594;2023-02-26T00:14:13;100978.53;;;0.89;83.18
20889;BME280;10604;51.976;7.594;2023-02-26T00:16:39;100979.44;;;0.91;82.60
20889;BME280;10604;51.976;7.594;2023-02-26T00:19:06;100987.31;;;1.00;82.88
20889;BME280;10604;51.976;7.594;2023-02-26T00:21:34;100985.56;;;0.96;82.92
20889;BME280;10604;51.976;7.594;2023-02-26T00:24:00;100991.47;;;0.85;83.12
20889;BME280;10604;51.976;7.594;2023-02-26T00:26:27;100988.78;;;0.80;82.76
20889;BME280;10604;51.976;7.594;2023-02-26T00:28:53;100996.56;;;0.80;83.06
20889;BME280;10604;51.976;7.594;2023-02-26T00:31:19;100998.19;;;0.72;82.76
20889;BME280;10604;51.976;7.594;2023-02-26T00:33:49;101006.09;;;0.78;82.66
20889;BME280;10604;51.976;7.594;2023-02-26T00:36:19;101018.38;;;0.91;82.28
20889;BME280;10604;51.976;7.594;2023-02-26T00:39:00;101015.78;;;0.93;82.01
20889;BME280;10604;51.976;7.594;2023-02-26T00:41:31;101014.78;;;0.83;81.94
20889;BME280;10604;51.976;7.594;2023-02-26T00:43:56;101021.47;;;0.66;82.29
20889;BME280;10604;51.976;7.594;2023-02-26T00:54:20;101036.13;;;0.62;82.48
20889;BME280;10604;51.976;7.594;2023-02-26T00:56:50;101029.97;;;0.56;82.17
20889;BME280;10604;51.976;7.594;2023-02-26T00:59:17;101030.63;;;0.44;82.08
20889;BME280;10604;51.976;7.594;2023-02-26T01:01:44;101036.03;;;0.56;81.92
20889;BME280;10604;51.976;7.594;2023-02-26T01:04:10;101033.50;;;0.61;81.71
20889;BME280;10604;51.976;7.594;2023-02-26T01:06:41;101043.69;;;0.47;81.56
20889;BME280;10604;51.976;7.594;2023-02-26T01:11:34;101031.41;;;0.35;81.89
20889;BME280;10604;51.976;7.594;2023-02-26T01:14:00;101039.19;;;0.35;81.35
20889;BME280;10604;51.976;7.594;2023-02-26T01:16:27;101043.31;;;0.24;81.70
20889;BME280;10604;51.976;7.594;2023-02-26T01:19:00;101040.13;;;0.41;81.18
20889;BME280;10604;51.976;7.594;2023-02-26T01:21:31;101045.22;;;0.36;81.41
20889;BME280;10604;51.976;7.594;2023-02-26T01:23:58;101050.34;;;0.31;81.51
20889;BME280;10604;51.976;7.594;2023-02-26T01:26:27;101046.81;;;0.26;81.32
20889;BME280;10604;51.976;7.594;2023-02-26T01:28:53;101053.75;;;0.30;81.03
20889;BME280;10604;51.976;7.594;2023-02-26T01:34:14;101048.47;;;0.24;81.34
20889;BME280;10604;51.976;7.594;2023-02-26T01:36:55;101052.00;;;0.26;81.06
20889;BME280;10604;51.976;7.594;2023-02-26T01:39:39;101058.56;;;0.06;81.58
20889;BME280;10604;51.976;7.594;2023-02-26T01:42:20;101059.53;;;0.13;81.07
20889;BME280;10604;51.976;7.594;2023-02-26T01:44:58;101055.06;;;0.04;81.80
20889;BME280;10604;51.976;7.594;2023-02-26T01:49:57;101061.28;;;0.14;81.56
20889;BME280;10604;51.976;7.594;2023-02-26T01:55:21;101067.22;;;0.08;81.93
20889;BME280;10604;51.976;7.594;2023-02-26T01:57:49;101062.69;;;-0.04;82.17
20889;BME280;10604;51.976;7.594;2023-02-26T02:00:17;101062.81;;;0.03;82.44
20889;BME280;10604;51.976;7.594;2023-02-26T02:02:42;101072.47;;;0.11;82.28
20889;BME280;10604;51.976;7.594;2023-02-26T02:05:16;101063.88;;;0.15;82.05
20889;BME280;10604;51.976;7.594;2023-02-26T02:07:43;101069.06;;;0.15;81.66
20889;BME280;10604;51.976;7.594;2023-02-26T02:10:09;101073.38;;;0.13;82.27
20889;BME280;10604;51.976;7.594;2023-02-26T02:15:10;101073.13;;;-0.01;82.85
20889;BME280;10604;51.976;7.594;2023-02-26T02:20:49;101072.47;;;0.11;82.50
20889;BME280;10604;51.976;7.594;2023-02-26T02:23:31;101069.69;;;0.02;82.30
20889;BME280;10604;51.976;7.594;2023-02-26T02:26:16;101068.66;;;-0.09;82.22
20889;BME280;10604;51.976;7.594;2023-02-26T02:29:27;101075.72;;;0.01;82.43
20889;BME280;10604;51.976;7.594;2023-02-26T02:31:38;101073.88;;;-0.06;82.09
20889;BME280;10604;51.976;7.594;2023-02-26T02:34:12;101072.34;;;0.05;82.27
20889;BME280;10604;51.976;7.594;2023-02-26T02:39:22;101089.59;;;0.03;81.84
20889;BME280;10604;51.976;7.594;2023-02-26T02:41:57;101084.41;;;0.03;81.69
20889;BME280;10604;51.976;7.594;2023-02-26T02:44:26;101084.47;;;0.06;81.61
20889;BME280;10604;51.976;7.594;2023-02-26T02:46:56;101090.41;;;-0.01;81.97
20889;BME280;10604;51.976;7.594;2023-02-26T02:52:14;101106.50;;;-0.17;81.83
20889;BME280;10604;51.976;7.594;2023-02-26T02:57:31;101112.44;;;-0.23;82.12
20889;BME280;10604;51.976;7.594;2023-02-26T03:00:00;101110.00;;;-0.15;81.71
20889;BME280;10604;51.976;7.594;2023-02-26T03:05:09;101120.22;;;-0.23;81.84
20889;BME280;10604;51.976;7.594;2023-02-26T03:07:40;101123.13;;;-0.08;81.68
20889;BME280;10604;51.976;7.594;2023-02-26T03:10:08;101127.41;;;-0.08;81.75
20889;BME280;10604;51.976;7.594;2023-02-26T03:12:33;101129.91;;;-0.13;81.50
20889;BME280;10604;51.976;7.594;2023-02-26T03:14:59;101130.72;;;-0.15;81.41
20889;BME280;10604;51.976;7.594;2023-02-26T03:17:28;101144.66;;;-0.10;81.20
20889;BME280;10604;51.976;7.594;2023-02-26T03:23:22;101140.38;;;-0.07;81.30
20889;BME280;10604;51.976;7.594;2023-02-26T03:28:24;101148.72;;;-0.21;81.45
20889;BME280;10604;51.976;7.594;2023-02-26T03:35:52;101163.50;;;-0.17;81.32
20889;BME280;10604;51.976;7.594;2023-02-26T03:38:29;101158.97;;;-0.27;81.43
20889;BME280;10604;51.976;7.594;2023-02-26T03:41:06;101167.75;;;-0.21;81.24
20889;BME280;10604;51.976;7.594;2023-02-26T03:43:40;101171.03;;;-0.29;81.29
20889;BME280;10604;51.976;7.594;2023-02-26T03:46:12;101181.25;;;-0.37;81.24
20889;BME280;10604;51.976;7.594;2023-02-26T03:48:39;101179.44;;;-0.40;81.20
20889;BME280;10604;51.976;7.594;2023-02-26T03:51:11;101188.97;;;-0.38;81.54
20889;BME280;10604;51.976;7.594;2023-02-26T03:53:47;101190.72;;;-0.37;81.22
20889;BME280;10604;51.976;7.594;2023-02-26T03:56:36;101195.78;;;-0.44;81.77
20889;BME280;10604;51.976;7.594;2023-02-26T03:59:03;101188.91;;;-0.42;81.80
20889;BME280;10604;51.976;7.594;2023-02-26T04:01:33;101207.75;;;-0.49;81.83
20889;BME280;10604;51.976;7.594;2023-02-26T04:04:08;101204.53;;;-0.38;81.64
20889;BME280;10604;51.976;7.594;2023-02-26T04:06:35;101207.75;;;-0.49;81.50
20889;BME280;10604;51.976;7.594;2023-02-26T04:09:02;101197.59;;;-0.40;80.76
20889;BME280;10604;51.976;7.594;2023-02-26T04:11:28;101220.06;;;-0.38;81.12
20889;BME280;10604;51.976;7.594;2023-02-26T04:13:54;101208.75;;;-0.44;81.40
20889;BME280;10604;51.976;7.594;2023-02-26T04:16:20;101223.28;;;-0.49;81.33
20889;BME280;10604;51.976;7.594;2023-02-26T04:18:46;101226.69;;;-0.50;81.14
20889;BME280;10604;51.976;7.594;2023-02-26T04:21:18;101228.06;;;-0.67;81.21
20889;BME280;10604;51.976;7.594;2023-02-26T04:23:44;101224.69;;;-0.63;81.64
20889;BME280;10604;51.976;7.594;2023-02-26T04:26:09;101223.22;;;-0.52;80.90
20889;BME280;10604;51.976;7.594;2023-02-26T04:28:35;101242.94;;;-0.57;81.30
20889;BME280;10604;51.976;7.594;2023-02-26T04:31:03;101240.34;;;-0.57;81.53
20889;BME280;10604;51.976;7.594;2023-02-26T04:33:29;101245.34;;;-0.66;81.30
20889;BME280;10604;51.976;7.594;2023-02-26T04:35:56;101247.09;;;-0.65;81.54
20889;BME280;10604;51.976;7.594;2023-02-26T04:38:21;101259.25;;;-0.61;81.80
20889;BME280;10604;51.976;7.594;2023-02-26T04:40:48;101252.28;;;-0.65;82.01
20889;BME280;10604;51.976;7.594;2023-02-26T04:43:13;101262.81;;;-0.56;81.47
20889;BME280;10604;51.976;7.594;2023-02-26T04:45:39;101262.63;;;-0.65;81.28
20889;BME280;10604;51.976;7.594;2023-02-26T04:48:04;101266.13;;;-0.63;81.17
20889;BME280;10604;51.976;7.594;2023-02-26T04:50:29;101270.91;;;-0.78;82.00
20889;BME280;10604;51.976;7.594;2023-02-26T04:52:55;101271.69;;;-0.82;82.09
20889;BME280;10604;51.976;7.594;2023-02-26T04:55:20;101275.13;;;-0.83;81.77
20889;BME280;10604;51.976;7.594;2023-02-26T04:57:46;101282.66;;;-0.92;82.62
20889;BME280;10604;51.976;7.594;2023-02-26T05:00:11;101280.97;;;-0.90;82.40
20889;BME280;10604;51.976;7.594;2023-02-26T05:02:37;101281.06;;;-0.87;82.31
20889;BME280;10604;51.976;7.594;2023-02-26T05:05:02;101285.38;;;-0.88;82.40
20889;BME280;10604;51.976;7.594;2023-02-26T05:07:28;101284.72;;;-0.79;82.60
20889;BME280;10604;51.976;7.594;2023-02-26T05:09:53;101289.03;;;-0.78;81.99
20889;BME280;10604;51.976;7.594;2023-02-26T05:12:19;101292.59;;;-0.74;81.62
20889;BME280;10604;51.976;7.594;2023-02-26T05:14:44;101286.63;;;-0.72;81.74
20889;BME280;10604;51.976;7.594;2023-02-26T05:17:09;101298.72;;;-0.71;81.74
20889;BME280;10604;51.976;7.594;2023-02-26T05:19:35;101302.06;;;-0.75;82.47
20889;BME280;10604;51.976;7.594;2023-02-26T05:22:00;101299.16;;;-0.89;82.36
20889;BME280;10604;51.976;7.594;2023-02-26T05:24:26;101305.59;;;-0.73;81.85
20889;BME280;10604;51.976;7.594;2023-02-26T05:26:52;101312.28;;;-0.81;81.88
20889;BME280;10604;51.976;7.594;2023-02-26T05:29:17;101310.63;;;-0.79;81.73
20889;BME280;10604;51.976;7.594;2023-02-26T05:31:43;101315.72;;;-0.82;81.79
20889;BME280;10604;51.976;7.594;2023-02-26T05:34:08;101326.06;;;-0.82;82.09
20889;BME280;10604;51.976;7.594;2023-02-26T05:36:34;101329.34;;;-0.89;81.57
20889;BME280;10604;51.976;7.594;2023-02-26T05:38:59;101334.59;;;-0.86;82.24
20889;BME280;10604;51.976;7.594;2023-02-26T05:41:25;101331.16;;;-0.85;81.85
20889;BME280;10604;51.976;7.594;2023-02-26T05:43:50;101336.25;;;-0.88;81.86
20889;BME280;10604;51.976;7.594;2023-02-26T05:46:15;101338.69;;;-0.94;81.73
20889;BME280;10604;51.976;7.594;2023-02-26T05:48:41;101341.44;;;-0.88;82.34
20889;BME280;10604;51.976;7.594;2023-02-26T05:51:06;101340.41;;;-0.95;82.52
20889;BME280;10604;51.976;7.594;2023-02-26T05:53:31;101346.63;;;-0.88;82.23
20889;BME280;10604;51.976;7.594;2023-02-26T05:55:57;101350.09;;;-0.88;81.73
20889;BME280;10604;51.976;7.594;2023-02-26T05:58:22;101351.78;;;-0.88;82.00
20889;BME280;10604;51.976;7.594;2023-02-26T06:00:48;101356.28;;;-0.81;82.39
20889;BME280;10604;51.976;7.594;2023-02-26T06:03:13;101363.91;;;-0.87;82.45
20889;BME280;10604;51.976;7.594;2023-02-26T06:05:39;101375.25;;;-0.82;82.05
20889;BME280;10604;51.976;7.594;2023-02-26T06:08:04;101370.66;;;-0.92;82.56
20889;BME280;10604;51.976;7.594;2023-02-26T06:10:30;101378.41;;;-0.92;82.60
20889;BME280;10604;51.976;7.594;2023-02-26T06:12:55;101382.53;;;-1.00;82.45
20889;BME280;10604;51.976;7.594;2023-02-26T06:15:21;101388.44;;;-1.04;83.00
20889;BME280;10604;51.976;7.594;2023-02-26T06:17:46;101398.06;;;-1.00;82.73
20889;BME280;10604;51.976;7.594;2023-02-26T06:20:12;101390.97;;;-1.07;83.42
20889;BME280;10604;51.976;7.594;2023-02-26T06:22:37;101396.22;;;-1.04;83.45
20889;BME280;10604;51.976;7.594;2023-02-26T06:25:04;101410.91;;;-1.03;83.20
20889;BME280;10604;51.976;7.594;2023-02-26T06:27:29;101408.41;;;-1.00;83.26
20889;BME280;10604;51.976;7.594;2023-02-26T06:29:55;101412.72;;;-1.01;83.24
20889;BME280;10604;51.976;7.594;2023-02-26T06:32:20;101416.84;;;-1.07;83.59
20889;BME280;10604;51.976;7.594;2023-02-26T06:34:45;101420.44;;;-1.02;83.68
20889;BME280;10604;51.976;7.594;2023-02-26T06:37:11;101424.84;;;-0.98;83.60
20889;BME280;10604;51.976;7.594;2023-02-26T06:39:36;101431.56;;;-1.05;83.38
20889;BME280;10604;51.976;7.594;2023-02-26T06:42:01;101431.31;;;-1.14;84.04
20889;BME280;10604;51.976;7.594;2023-02-26T06:44:27;101429.75;;;-1.09;83.99
20889;BME280;10604;51.976;7.594;2023-02-26T06:46:52;101441.88;;;-1.06;84.10
20889;BME280;10604;51.976;7.594;2023-02-26T06:49:18;101441.97;;;-1.03;84.01
20889;BME280;10604;51.976;7.594;2023-02-26T06:51:43;101448.06;;;-1.01;83.69
20889;BME280;10604;51.976;7.594;2023-02-26T06:54:08;101455.03;;;-0.99;83.58
20889;BME280;10604;51.976;7.594;2023-02-26T06:56:34;101454.75;;;-1.09;83.85
20889;BME280;10604;51.976;7.594;2023-02-26T06:58:59;101467.94;;;-1.00;83.92
20889;BME280;10604;51.976;7.594;2023-02-26T07:01:25;101469.66;;;-0.99;84.61
20889;BME280;10604;51.976;7.594;2023-02-26T07:03:51;101467.19;;;-0.96;83.99
20889;BME280;10604;51.976;7.594;2023-02-26T07:06:16;101475.06;;;-0.93;84.01
20889;BME280;10604;51.976;7.594;2023-02-26T07:08:42;101475.25;;;-0.86;83.83
20889;BME280;10604;51.976;7.594;2023-02-26T07:11:07;101488.06;;;-0.90;83.81
20889;BME280;10604;51.976;7.594;2023-02-26T07:13:35;101486.56;;;-0.82;83.74
20889;BME280;10604;51.976;7.594;2023-02-26T07:16:01;101491.28;;;-0.67;83.32
20889;BME280;10604;51.976;7.594;2023-02-26T07:18:26;101492.88;;;-0.72;83.17
20889;BME280;10604;51.976;7.594;2023-02-26T07:20:52;101499.00;;;-0.69;83.34
20889;BME280;10604;51.976;7.594;2023-02-26T07:23:17;101498.13;;;-0.69;83.43
20889;BME280;10604;51.976;7.594;2023-02-26T07:25:42;101504.34;;;-0.63;83.24
20889;BME280;10604;51.976;7.594;2023-02-26T07:28:08;101503.56;;;-0.60;83.00
20889;BME280;10604;51.976;7.594;2023-02-26T07:30:33;101518.41;;;-0.55;82.98
20889;BME280;10604;51.976;7.594;2023-02-26T07:32:59;101514.19;;;-0.51;82.64
20889;BME280;10604;51.976;7.594;2023-02-26T07:35:24;101514.97;;;-0.54;82.62
20889;BME280;10604;51.976;7.594;2023-02-26T07:37:49;101519.50;;;-0.47;82.19
20889;BME280;10604;51.976;7.594;2023-02-26T07:40:16;101524.94;;;-0.37;82.27
20889;BME280;10604;51.976;7.594;2023-02-26T07:42:42;101529.94;;;-0.44;82.47
20889;BME280;10604;51.976;7.594;2023-02-26T07:45:08;101518.91;;;-0.36;82.24
20889;BME280;10604;51.976;7.594;2023-02-26T07:47:34;101538.19;;;-0.25;81.86
20889;BME280;10604;51.976;7.594;2023-02-26T07:49:59;101533.91;;;-0.25;82.03
20889;BME280;10604;51.976;7.594;2023-02-26T07:52:25;101531.50;;;-0.17;81.48
20889;BME280;10604;51.976;7.594;2023-02-26T07:54:51;101540.13;;;-0.18;81.21
20889;BME280;10604;51.976;7.594;2023-02-26T07:57:17;101533.34;;;-0.13;81.42
20889;BME280;10604;51.976;7.594;2023-02-26T07:59:42;101543.16;;;-0.02;80.72
20889;BME280;10604;51.976;7.594;2023-02-26T08:02:09;101565.72;;;0.03;80.68
20889;BME280;10604;51.976;7.594;2023-02-26T08:04:34;101559.75;;;0.05;80.85
20889;BME280;10604;51.976;7.594;2023-02-26T08:07:00;101563.16;;;0.04;81.06
20889;BME280;10604;51.976;7.594;2023-02-26T08:09:26;101553.19;;;0.19;80.06
20889;BME280;10604;51.976;7.594;2023-02-26T08:11:51;101562.09;;;0.30;79.49
20889;BME280;10604;51.976;7.594;2023-02-26T08:14:17;101565.63;;;0.32;79.34
20889;BME280;10604;51.976;7.594;2023-02-26T08:16:42;101570.16;;;0.41;78.69
20889;BME280;10604;51.976;7.594;2023-02-26T08:19:08;101558.63;;;0.28;79.15
20889;BME280;10604;51.976;7.594;2023-02-26T08:21:33;101573.50;;;0.35;78.90
20889;BME280;10604;51.976;7.594;2023-02-26T08:23:59;101579.56;;;0.37;79.03
20889;BME280;10604;51.976;7.594;2023-02-26T08:26:24;101581.47;;;0.45;78.89
20889;BME280;10604;51.976;7.594;2023-02-26T08:28:50;101574.47;;;0.41;78.95
20889;BME280;10604;51.976;7.594;2023-02-26T08:31:16;101590.84;;;0.74;78.05
20889;BME280;10604;51.976;7.594;2023-02-26T08:33:42;101577.13;;;0.78;77.52
20889;BME280;10604;51.976;7.594;2023-02-26T08:36:08;101582.22;;;0.75;77.58
20889;BME280;10604;51.976;7.594;2023-02-26T08:38:33;101592.56;;;0.73;77.26
20889;BME280;10604;51.976;7.594;2023-02-26T08:40:59;101593.00;;;0.93;76.54
20889;BME280;10604;51.976;7.594;2023-02-26T08:43:24;101595.88;;;1.04;75.85
20889;BME280;10604;51.976;7.594;2023-02-26T08:45:54;101595.91;;;1.05;75.45
20889;BME280;10604;51.976;7.594;2023-02-26T08:48:20;101608.69;;;0.96;76.20
20889;BME280;10604;51.976;7.594;2023-02-26T08:50:46;101607.19;;;1.07;74.85
20889;BME280;10604;51.976;7.594;2023-02-26T08:53:11;101603.88;;;1.14;74.33
20889;BME280;10604;51.976;7.594;2023-02-26T08:55:37;101610.84;;;1.15;74.77
20889;BME280;10604;51.976;7.594;2023-02-26T08:58:02;101619.69;;;1.24;74.49
20889;BME280;10604;51.976;7.594;2023-02-26T09:00:28;101623.41;;;1.35;73.81
20889;BME280;10604;51.976;7.594;2023-02-26T09:02:54;101630.41;;;1.39;72.84
20889;BME280;10604;51.976;7.594;2023-02-26T09:05:20;101627.56;;;1.28;73.03
20889;BME280;10604;51.976;7.594;2023-02-26T09:07:45;101628.78;;;1.44;73.05
20889;BME280;10604;51.976;7.594;2023-02-26T09:10:12;101640.13;;;1.47;74.50
20889;BME280;10604;51.976;7.594;2023-02-26T09:12:38;101641.06;;;1.51;73.76
20889;BME280;10604;51.976;7.594;2023-02-26T09:15:05;101656.72;;;1.54;73.21
20889;BME280;10604;51.976;7.594;2023-02-26T09:17:31;101659.06;;;1.42;73.55
20889;BME280;10604;51.976;7.594;2023-02-26T09:19:56;101660.41;;;1.65;72.88
20889;BME280;10604;51.976;7.594;2023-02-26T09:22:22;101667.47;;;1.69;73.23
20889;BME280;10604;51.976;7.594;2023-02-26T09:24:47;101669.22;;;1.70;73.58
20889;BME280;10604;51.976;7.594;2023-02-26T09:27:12;101666.56;;;1.69;72.64
20889;BME280;10604;51.976;7.594;2023-02-26T09:29:38;101662.41;;;1.78;72.27
20889;BME280;10604;51.976;7.594;2023-02-26T09:32:03;101673.69;;;1.79;72.34
20889;BME280;10604;51.976;7.594;2023-02-26T09:34:33;101671.22;;;1.83;71.11
20889;BME280;10604;51.976;7.594;2023-02-26T09:36:58;101676.97;;;2.11;70.72
20889;BME280;10604;51.976;7.594;2023-02-26T09:39:24;101681.22;;;2.07;71.31
20889;BME280;10604;51.976;7.594;2023-02-26T09:41:52;101682.69;;;2.38;71.12
20889;BME280;10604;51.976;7.594;2023-02-26T09:44:35;101679.56;;;2.57;70.30
20889;BME280;10604;51.976;7.594;2023-02-26T09:49:57;101690.19;;;3.22;67.73
20889;BME280;10604;51.976;7.594;2023-02-26T09:54:55;101690.16;;;3.81;65.90
20889;BME280;10604;51.976;7.594;2023-02-26T09:57:31;101696.13;;;4.45;62.47
20889;BME280;10604;51.976;7.594;2023-02-26T09:59:57;101701.88;;;5.02;59.55
20889;BME280;10604;51.976;7.594;2023-02-26T10:05:15;101703.97;;;5.46;56.86
20889;BME280;10604;51.976;7.594;2023-02-26T10:07:55;101712.72;;;5.54;56.06
20889;BME280;10604;51.976;7.594;2023-02-26T10:12:56;101706.09;;;6.17;54.54
20889;BME280;10604;51.976;7.594;2023-02-26T10:15:41;101719.22;;;6.29;53.14
20889;BME280;10604;51.976;7.594;2023-02-26T10:18:18;101716.69;;;6.65;51.93
20889;BME280;10604;51.976;7.594;2023-02-26T10:23:43;101716.50;;;6.02;51.07
20889;BME280;10604;51.976;7.594;2023-02-26T10:26:18;101725.41;;;6.61;51.99
20889;BME280;10604;51.976;7.594;2023-02-26T10:28:56;101723.63;;;6.54;50.58
20889;BME280;10604;51.976;7.594;2023-02-26T10:34:40;101735.09;;;7.10;49.31
20889;BME280;10604;51.976;7.594;2023-02-26T10:39:50;101730.69;;;7.04;48.53
20889;BME280;10604;51.976;7.594;2023-02-26T10:42:32;101737.72;;;7.29;47.94
20889;BME280;10604;51.976;7.594;2023-02-26T10:48:13;101746.44;;;7.50;48.32
20889;BME280;10604;51.976;7.594;2023-02-26T10:50:51;101756.00;;;7.89;47.19
20889;BME280;10604;51.976;7.594;2023-02-26T10:53:19;101746.34;;;7.98;46.16
20889;BME280;10604;51.976;7.594;2023-02-26T10:56:13;101740.97;;;8.32;46.65
20889;BME280;10604;51.976;7.594;2023-02-26T10:58:40;101738.97;;;8.81;44.48
20889;BME280;10604;51.976;7.594;2023-02-26T11:01:17;101742.56;;;8.60;43.46
20889;BME280;10604;51.976;7.594;2023-02-26T11:03:46;101758.47;;;8.45;43.05
20889;BME280;10604;51.976;7.594;2023-02-26T11:06:26;101754.19;;;8.09;44.57
20889;BME280;10604;51.976;7.594;2023-02-26T11:08:55;101767.34;;;7.89;45.00
20889;BME280;10604;51.976;7.594;2023-02-26T11:12:11;101748.91;;;8.15;43.79
20889;BME280;10604;51.976;7.594;2023-02-26T11:14:38;101770.94;;;7.39;43.14
20889;BME280;10604;51.976;7.594;2023-02-26T11:17:10;101763.84;;;7.90;43.43
20889;BME280;10604;51.976;7.594;2023-02-26T11:19:39;101749.78;;;8.12;41.34
20889;BME280;10604;51.976;7.594;2023-02-26T11:22:07;101754.06;;;8.39;42.43
20889;BME280;10604;51.976;7.594;2023-02-26T11:24:39;101753.28;;;8.14;42.24
20889;BME280;10604;51.976;7.594;2023-02-26T11:27:11;101749.63;;;8.58;42.05
20889;BME280;10604;51.976;7.594;2023-02-26T11:29:43;101748.81;;;8.42;42.53
20889;BME280;10604;51.976;7.594;2023-02-26T11:32:21;101742.47;;;8.75;40.48
20889;BME280;10604;51.976;7.594;2023-02-26T11:34:48;101738.03;;;8.86;41.63
20889;BME280;10604;51.976;7.594;2023-02-26T11:37:23;101742.47;;;8.78;40.31
20889;BME280;10604;51.976;7.594;2023-02-26T11:39:55;101746.06;;;8.65;40.90
20889;BME280;10604;51.976;7.594;2023-02-26T11:42:22;101747.78;;;8.69;41.82
20889;BME280;10604;51.976;7.594;2023-02-26T11:44:49;101739.91;;;8.74;41.63
20889;BME280;10604;51.976;7.594;2023-02-26T11:47:18;101742.72;;;8.33;41.39
20889;BME280;10604;51.976;7.594;2023-02-26T11:49:53;101746.25;;;8.19;41.34
20889;BME280;10604;51.976;7.594;2023-02-26T11:52:43;101741.78;;;8.49;41.04
20889;BME280;10604;51.976;7.594;2023-02-26T11:55:42;101739.31;;;8.06;41.36
20889;BME280;10604;51.976;7.594;2023-02-26T11:58:19;101742.81;;;8.07;42.04
20889;BME280;10604;51.976;7.594;2023-02-26T12:00:46;101743.81;;;7.33;42.81
20889;BME280;10604;51.976;7.594;2023-02-26T12:03:22;101751.66;;;7.71;43.06
20889;BME280;10604;51.976;7.594;2023-02-26T12:05:49;101741.16;;;7.80;42.11
20889;BME280;10604;51.976;7.594;2023-02-26T12:08:28;101748.19;;;7.41;43.19
20889;BME280;10604;51.976;7.594;2023-02-26T12:19:31;101739.47;;;7.45;43.86
20889;BME280;10604;51.976;7.594;2023-02-26T12:42:07;101730.47;;;8.32;42.79
20889;BME280;10604;51.976;7.594;2023-02-26T12:48:13;101742.97;;;7.44;41.44
20889;BME280;10604;51.976;7.594;2023-02-26T12:56:47;101732.47;;;7.38;42.59
20889;BME280;10604;51.976;7.594;2023-02-26T13:07:50;101750.81;;;7.57;43.20
20889;BME280;10604;51.976;7.594;2023-02-26T13:21:50;101747.31;;;6.92;43.12
20889;BME280;10604;51.976;7.594;2023-02-26T13:24:21;101743.66;;;6.25;44.46
20889;BME280;10604;51.976;7.594;2023-02-26T13:26:50;101741.03;;;6.22;45.20
20889;BME280;10604;51.976;7.594;2023-02-26T13:29:35;101734.13;;;6.48;43.97
20889;BME280;10604;51.976;7.594;2023-02-26T13:32:12;101732.44;;;6.75;44.50
20889;BME280;10604;51.976;7.594;2023-02-26T13:34:49;101733.34;;;7.28;44.20
20889;BME280;10604;51.976;7.594;2023-02-26T13:37:25;101730.69;;;7.25;43.34
20889;BME280;10604;51.976;7.594;2023-02-26T13:42:41;101735.97;;;7.36;43.64
20889;BME280;10604;51.976;7.594;2023-02-26T13:45:29;101728.94;;;7.33;44.67
20889;BME280;10604;51.976;7.594;2023-02-26T13:48:11;101721.97;;;7.13;44.46
20889;BME280;10604;51.976;7.594;2023-02-26T13:50:43;101720.22;;;7.19;43.54
20889;BME280;10604;51.976;7.594;2023-02-26T13:56:12;101714.03;;;6.61;44.77
20889;BME280;10604;51.976;7.594;2023-02-26T13:58:43;101713.16;;;6.48;45.75
20889;BME280;10604;51.976;7.594;2023-02-26T14:01:27;101714.84;;;6.34;44.84
20889;BME280;10604;51.976;7.594;2023-02-26T14:20:06;101710.22;;;5.77;47.18
20889;BME280;10604;51.976;7.594;2023-02-26T14:22:35;101702.50;;;5.94;47.85
20889;BME280;10604;51.976;7.594;2023-02-26T14:27:39;101705.78;;;5.62;46.60
20889;BME280;10604;51.976;7.594;2023-02-26T14:35:11;101708.31;;;5.50;48.78
20889;BME280;10604;51.976;7.594;2023-02-26T14:37:39;101709.22;;;5.52;47.84
20889;BME280;10604;51.976;7.594;2023-02-26T14:42:42;101721.34;;;5.41;47.76
20889;BME280;10604;51.976;7.594;2023-02-26T14:45:34;101713.34;;;5.20;46.26
20889;BME280;10604;51.976;7.594;2023-02-26T14:48:03;101723.78;;;5.20;46.09
20889;BME280;10604;51.976;7.594;2023-02-26T14:51:04;101722.94;;;5.18;45.70
20889;BME280;10604;51.976;7.594;2023-02-26T15:02:29;101729.84;;;5.12;45.93
20889;BME280;10604;51.976;7.594;2023-02-26T15:10:23;101733.38;;;5.18;46.97
20889;BME280;10604;51.976;7.594;2023-02-26T15:16:27;101728.09;;;5.11;47.99
20889;BME280;10604;51.976;7.594;2023-02-26T15:19:04;101732.44;;;5.09;48.94
20889;BME280;10604;51.976;7.594;2023-02-26T15:21:52;101724.69;;;5.22;47.75
20889;BME280;10604;51.976;7.594;2023-02-26T15:24:23;101721.09;;;5.07;47.56
20889;BME280;10604;51.976;7.594;2023-02-26T15:26:57;101724.50;;;5.00;48.75
20889;BME280;10604;51.976;7.594;2023-02-26T15:29:28;101733.22;;;4.99;47.55
20889;BME280;10604;51.976;7.594;2023-02-26T15:31:58;101733.25;;;5.02;46.75
20889;BME280;10604;51.976;7.594;2023-02-26T15:34:27;101736.50;;;4.77;48.84
20889;BME280;10604;51.976;7.594;2023-02-26T15:36:53;101740.97;;;4.92;47.98
20889;BME280;10604;51.976;7.594;2023-02-26T15:39:21;101743.53;;;4.84;48.30
20889;BME280;10604;51.976;7.594;2023-02-26T15:41:49;101741.66;;;4.71;48.52
20889;BME280;10604;51.976;7.594;2023-02-26T15:44:18;101750.34;;;4.70;49.27
20889;BME280;10604;51.976;7.594;2023-02-26T15:46:49;101752.84;;;4.58;49.08
20889;BME280;10604;51.976;7.594;2023-02-26T15:49:26;101750.16;;;4.52;49.80
20889;BME280;10604;51.976;7.594;2023-02-26T15:51:56;101747.56;;;4.55;49.57
20889;BME280;10604;51.976;7.594;2023-02-26T15:54:26;101755.28;;;4.43;50.79
20889;BME280;10604;51.976;7.594;2023-02-26T15:56:53;101759.06;;;4.67;50.76
20889;BME280;10604;51.976;7.594;2023-02-26T15:59:30;101755.69;;;4.79;49.93
20889;BME280;10604;51.976;7.594;2023-02-26T16:01:56;101761.00;;;4.91;50.15
20889;BME280;10604;51.976;7.594;2023-02-26T16:04:22;101758.44;;;4.94;50.42